Time;durP1;ratioP1;P1;durP2;ratioP2;P2;SDS_P1;SDS_P2;PMS_P1;PMS_P2;Temp;Humidity;BMP_temperature;BMP_pressure;BME280_temperature;BME280_humidity;BME280_pressure;Samples;Min_cycle;Max_cycle;Signal;HPM_P1;HPM_P2
2022/07/14 00:01:22;;;;;;;1.30;0.45;;;;;;;24.68;27.85;99019.13;4977148;28;20049;-77
2022/07/14 00:03:48;;;;;;;1.52;0.60;;;;;;;24.66;27.76;99021.19;5003947;28;20046;-89
2022/07/14 00:06:14;;;;;;;0.93;0.50;;;;;;;24.65;28.15;99019.53;5008336;28;20038;-86
2022/07/14 00:08:40;;;;;;;2.47;0.52;;;;;;;24.68;28.11;99021.81;4991283;28;20042;-88
2022/07/14 00:11:05;;;;;;;4.53;0.75;;;;;;;24.66;28.04;99019.34;4991736;28;20034;-88
2022/07/14 00:13:31;;;;;;;2.20;0.70;;;;;;;24.69;28.11;99015.44;5008117;28;20513;-89
2022/07/14 00:15:57;;;;;;;1.98;0.60;;;;;;;24.71;27.84;99014.19;4990936;28;20047;-88
2022/07/14 00:18:22;;;;;;;2.22;0.77;;;;;;;24.69;28.04;99021.59;5007851;28;20054;-88
2022/07/14 00:20:48;;;;;;;2.40;0.70;;;;;;;24.68;27.98;99030.63;5007913;28;20509;-86
2022/07/14 00:23:14;;;;;;;1.88;0.60;;;;;;;24.68;28.18;99025.28;5007673;28;20039;-86
2022/07/14 00:25:39;;;;;;;2.40;0.60;;;;;;;24.62;28.38;99027.94;4991511;28;20030;-86
2022/07/14 00:28:04;;;;;;;3.30;0.60;;;;;;;24.55;28.80;99028.72;5007500;28;20409;-86
2022/07/14 00:30:30;;;;;;;0.70;0.60;;;;;;;24.48;29.07;99035.88;4975300;28;20512;-87
2022/07/14 00:32:55;;;;;;;2.88;0.60;;;;;;;24.42;29.01;99035.88;4996668;28;20120;-88
2022/07/14 00:35:21;;;;;;;1.80;0.57;;;;;;;24.31;29.41;99023.91;4995900;28;20033;-86
2022/07/14 00:37:46;;;;;;;1.17;0.55;;;;;;;24.28;29.51;99032.31;4978471;28;20042;-86
2022/07/14 00:40:12;;;;;;;2.25;0.60;;;;;;;24.23;29.73;99035.56;4995147;28;20030;-86
2022/07/14 00:42:40;;;;;;;1.88;0.60;;;;;;;24.19;29.68;99045.84;4978715;28;20050;-87
2022/07/14 00:45:13;;;;;;;1.58;0.70;;;;;;;24.18;29.82;99040.69;4978721;28;20100;-87
2022/07/14 00:47:39;;;;;;;2.13;0.88;;;;;;;24.16;29.72;99034.72;4962775;28;20034;-87
2022/07/14 00:50:05;;;;;;;2.38;0.80;;;;;;;24.09;29.55;99040.03;4979120;28;20456;-88
2022/07/14 00:52:31;;;;;;;1.52;0.60;;;;;;;24.13;29.25;99030.63;4962435;28;20141;-87
2022/07/14 00:54:56;;;;;;;2.13;0.70;;;;;;;24.12;29.37;99034.28;4978891;28;20502;-88
2022/07/14 00:57:22;;;;;;;2.08;0.50;;;;;;;24.16;29.21;99029.38;4994889;28;20027;-88
2022/07/14 00:59:48;;;;;;;2.60;0.68;;;;;;;24.12;29.27;99033.47;4978522;28;20061;-87
2022/07/14 01:02:14;;;;;;;0.70;0.50;;;;;;;24.19;29.13;99031.66;4978803;28;20035;-86
2022/07/14 01:04:39;;;;;;;3.22;0.50;;;;;;;24.20;29.05;99038.66;4977812;28;20490;-87
2022/07/14 01:07:05;;;;;;;1.90;0.50;;;;;;;24.17;28.82;99034.50;4978500;28;20033;-87
2022/07/14 01:09:30;;;;;;;1.45;0.50;;;;;;;24.17;28.76;99025.69;4978761;28;20097;-87
2022/07/14 01:11:56;;;;;;;0.80;0.50;;;;;;;24.20;29.02;99038.66;4978534;28;20030;-87
2022/07/14 01:14:22;;;;;;;1.67;0.70;;;;;;;24.19;28.92;99029.84;4994587;28;20414;-87
2022/07/14 01:16:51;;;;;;;1.48;0.60;;;;;;;24.20;29.02;99034.13;4978433;28;20026;-87
2022/07/14 01:19:17;;;;;;;2.83;0.70;;;;;;;24.15;29.27;99028.56;4978293;28;20122;-87
2022/07/14 01:21:42;;;;;;;1.23;0.50;;;;;;;24.19;28.89;99035.16;4962061;28;20506;-87
2022/07/14 01:24:08;;;;;;;1.42;0.70;;;;;;;24.15;29.07;99043.75;4978368;28;20088;-88
2022/07/14 01:26:34;;;;;;;2.10;0.70;;;;;;;24.18;28.87;99038.03;4994120;28;20034;-89
2022/07/14 01:28:59;;;;;;;1.88;0.70;;;;;;;24.15;29.13;99043.75;4978072;28;20033;-88
2022/07/14 01:31:25;;;;;;;2.78;0.73;;;;;;;24.11;29.15;99026.50;4977401;28;20046;-88
2022/07/14 01:33:50;;;;;;;2.17;0.60;;;;;;;24.10;29.10;99046.16;4965771;28;20050;-87
2022/07/14 01:36:15;;;;;;;1.88;0.80;;;;;;;24.06;29.54;99039.59;4975914;28;20402;-87
2022/07/14 01:38:41;;;;;;;2.00;0.70;;;;;;;24.01;29.46;99045.53;4958384;28;20038;-87
2022/07/14 01:41:06;;;;;;;5.05;0.77;;;;;;;23.91;29.60;99037.03;4974174;28;20042;-88
2022/07/14 01:43:35;;;;;;;2.70;0.80;;;;;;;23.88;29.79;99045.44;4973879;28;20493;-88
2022/07/14 01:46:00;;;;;;;4.10;0.60;;;;;;;23.84;29.86;99042.34;4973679;28;20039;-89
2022/07/14 01:48:26;;;;;;;2.60;0.60;;;;;;;23.81;29.96;99040.03;4943078;28;20050;-87
2022/07/14 01:50:51;;;;;;;1.30;0.55;;;;;;;23.79;30.01;99048.22;4958724;28;20031;-87
2022/07/14 01:53:17;;;;;;;4.40;0.68;;;;;;;23.76;29.98;99040.63;4974595;28;20402;-88
2022/07/14 01:55:43;;;;;;;2.42;0.68;;;;;;;23.75;30.16;99052.31;4957792;28;20081;-87
2022/07/14 01:58:09;;;;;;;3.13;0.70;;;;;;;23.74;29.97;99050.66;4974325;28;20501;-87
2022/07/14 02:00:35;;;;;;;1.25;0.60;;;;;;;23.66;30.24;99054.28;4974407;28;20133;-87
2022/07/14 02:03:00;;;;;;;5.03;0.75;;;;;;;23.62;30.17;99046.88;4974372;28;20416;-88
2022/07/14 02:05:27;;;;;;;1.95;0.50;;;;;;;23.56;30.51;99044.97;4976436;28;20057;-87
2022/07/14 02:07:53;;;;;;;2.22;0.70;;;;;;;23.48;30.26;99049.44;4957702;28;20470;-87
2022/07/14 02:13:02;;;;;;;1.08;0.63;;;;;;;23.50;30.24;99057.25;4975365;28;20422;-88
2022/07/14 02:15:28;;;;;;;5.72;0.88;;;;;;;23.54;30.34;99055.84;4957891;28;20023;-88
2022/07/14 02:17:54;;;;;;;1.85;0.82;;;;;;;23.57;30.53;99057.28;4958122;28;20039;-87
2022/07/14 02:20:19;;;;;;;2.67;0.60;;;;;;;23.61;30.69;99070.03;4974889;28;20033;-87
2022/07/14 02:22:45;;;;;;;1.40;0.70;;;;;;;23.55;30.63;99062.81;4958058;28;20031;-86
2022/07/14 02:25:12;;;;;;;1.45;0.65;;;;;;;23.56;30.45;99061.81;4974019;28;20035;-87
2022/07/14 02:27:37;;;;;;;1.90;0.65;;;;;;;23.54;30.71;99066.50;4957604;28;20490;-87
2022/07/14 02:30:03;;;;;;;5.28;0.80;;;;;;;23.41;30.84;99067.22;4957747;28;20035;-87
2022/07/14 02:32:31;;;;;;;2.22;0.77;;;;;;;23.40;31.25;99072.72;4943182;28;20038;-87
2022/07/14 02:34:57;;;;;;;3.30;0.67;;;;;;;23.28;31.44;99059.94;4961296;28;20034;-88
2022/07/14 02:37:22;;;;;;;5.07;0.90;;;;;;;23.32;31.37;99072.88;4977073;28;20108;-87
2022/07/14 02:39:48;;;;;;;1.23;0.57;;;;;;;23.30;31.46;99070.41;4977171;28;20089;-86
2022/07/14 02:42:13;;;;;;;1.85;0.80;;;;;;;23.33;31.21;99074.53;4994575;28;20041;-86
2022/07/14 02:44:39;;;;;;;1.00;0.50;;;;;;;23.26;31.42;99064.63;4976812;28;20030;-87
2022/07/14 02:47:04;;;;;;;2.53;0.80;;;;;;;23.33;31.18;99066.53;4961220;28;20022;-87
2022/07/14 02:49:30;;;;;;;2.63;0.70;;;;;;;23.31;30.90;99072.06;4994202;28;20397;-88
2022/07/14 02:51:55;;;;;;;3.05;0.63;;;;;;;23.33;30.88;99064.69;4976664;28;20045;-87
2022/07/14 02:54:21;;;;;;;2.85;0.73;;;;;;;23.36;31.03;99072.28;4976843;28;20034;-87
2022/07/14 02:56:46;;;;;;;2.75;0.75;;;;;;;23.35;30.80;99064.50;4976693;28;20037;-87
2022/07/14 02:59:12;;;;;;;4.88;0.95;;;;;;;23.39;30.99;99068.41;4994276;28;20065;-88
2022/07/14 03:01:37;;;;;;;3.80;0.70;;;;;;;23.38;30.80;99064.13;4992687;28;20417;-88
2022/07/14 03:04:03;;;;;;;1.65;0.60;;;;;;;23.47;31.07;99076.28;4976638;28;20034;-88
2022/07/14 03:06:28;;;;;;;2.75;0.77;;;;;;;23.63;30.70;99070.66;4991966;28;20049;-88
2022/07/14 03:08:54;;;;;;;2.05;0.70;;;;;;;24.03;29.78;99060.28;4993913;28;20039;-88
2022/07/14 03:11:19;;;;;;;2.50;0.80;;;;;;;24.37;29.05;99058.63;4976453;28;20031;-87
2022/07/14 03:13:45;;;;;;;4.40;0.63;;;;;;;24.62;28.72;99060.81;4993660;28;20088;-87
2022/07/14 03:16:10;;;;;;;3.38;0.75;;;;;;;24.92;28.21;99053.28;4976376;28;20402;-87
2022/07/14 03:18:36;;;;;;;1.52;0.60;;;;;;;25.31;27.69;99056.22;4992682;28;20088;-89
2022/07/14 03:21:09;;;;;;;2.05;0.70;;;;;;;25.66;27.22;99053.34;4976366;28;20533;-88
2022/07/14 03:23:35;;;;;;;5.78;0.70;;;;;;;26.10;26.67;99062.53;4959226;28;20042;-88
2022/07/14 03:26:01;;;;;;;3.88;1.00;;;;;;;26.57;25.91;99065.06;4976430;28;20395;-88
2022/07/14 03:28:26;;;;;;;6.80;0.70;;;;;;;26.96;25.52;99060.53;4975897;28;20112;-80
2022/07/14 03:30:55;;;;;;;1.63;0.70;;;;;;;27.39;25.13;99056.31;4976520;28;20478;-82
2022/07/14 03:33:22;;;;;;;4.60;0.60;;;;;;;27.76;24.39;99051.06;4981122;28;20537;-81
2022/07/14 03:35:48;;;;;;;3.25;0.70;;;;;;;28.15;23.99;99051.72;4975894;28;20033;-84
2022/07/14 03:38:13;;;;;;;2.25;0.70;;;;;;;28.52;23.74;99051.66;4975926;28;20028;-81
2022/07/14 03:40:39;;;;;;;3.35;0.50;;;;;;;28.94;23.33;99051.75;4992650;28;20030;-84
2022/07/14 03:43:04;;;;;;;5.88;0.80;;;;;;;29.28;23.06;99053.94;4960271;28;20034;-83
2022/07/14 03:45:30;;;;;;;4.93;0.80;;;;;;;29.63;22.79;99050.47;4975014;28;20105;-83
2022/07/14 03:47:55;;;;;;;3.50;1.40;;;;;;;30.07;22.15;99054.41;4974929;28;20041;-83
2022/07/14 03:50:21;;;;;;;2.47;1.00;;;;;;;30.51;22.09;99042.41;4993261;28;20025;-81
2022/07/14 03:52:46;;;;;;;5.18;1.40;;;;;;;30.90;21.62;99053.34;4974130;28;20041;-82
2022/07/14 03:55:12;;;;;;;2.55;0.93;;;;;;;31.31;21.37;99051.38;4975105;28;20025;-82
2022/07/14 03:57:38;;;;;;;1.67;0.82;;;;;;;31.73;20.95;99056.34;4943238;28;20037;-83
2022/07/14 04:00:04;;;;;;;6.82;0.80;;;;;;;32.03;20.19;99055.16;4959328;28;20513;-82
2022/07/14 04:02:29;;;;;;;3.63;0.90;;;;;;;32.47;19.62;99060.56;4958120;28;20133;-82
2022/07/14 04:04:55;;;;;;;3.75;0.90;;;;;;;32.77;18.52;99062.00;4957173;28;20189;-83
2022/07/14 04:07:20;;;;;;;8.80;1.05;;;;;;;32.76;18.99;99063.06;4962151;28;20022;-81
2022/07/14 04:09:46;;;;;;;6.15;1.10;;;;;;;32.94;18.77;99068.13;4975834;28;20034;-81
2022/07/14 04:12:12;;;;;;;10.93;1.30;;;;;;;33.48;19.05;99066.44;4964543;28;20481;-72
2022/07/14 04:14:37;;;;;;;3.65;1.00;;;;;;;34.48;18.10;99065.63;4996708;28;20109;-72
2022/07/14 04:17:03;;;;;;;10.15;1.00;;;;;;;35.25;17.28;99062.25;4996781;28;20106;-71
2022/07/14 04:19:28;;;;;;;8.10;0.98;;;;;;;35.99;16.57;99066.22;4946232;28;20058;-75
2022/07/14 04:21:54;;;;;;;2.55;0.90;;;;;;;36.68;16.00;99071.91;4994709;28;20044;-81
2022/07/14 04:24:19;;;;;;;3.28;1.30;;;;;;;37.27;15.80;99064.75;4997624;28;20034;-79
2022/07/14 04:26:45;;;;;;;5.35;1.20;;;;;;;37.77;15.39;99067.25;5014703;28;20470;-78
2022/07/14 04:29:10;;;;;;;5.68;1.10;;;;;;;38.23;14.94;99062.41;5010629;28;20030;-80
2022/07/14 04:31:36;;;;;;;9.48;1.55;;;;;;;38.77;14.40;99074.75;5004151;28;20053;-75
2022/07/14 04:34:02;;;;;;;8.07;1.50;;;;;;;39.24;14.21;99077.59;4976899;28;20038;-77
2022/07/14 04:36:27;;;;;;;6.72;1.85;;;;;;;39.70;13.75;99078.75;4993955;28;20022;-78
2022/07/14 04:38:53;;;;;;;8.05;1.70;;;;;;;40.06;13.58;99080.78;4994478;28;20478;-77
2022/07/14 04:41:18;;;;;;;7.90;1.70;;;;;;;40.38;12.99;99077.09;4993673;28;20571;-75
2022/07/14 04:43:44;;;;;;;7.63;1.42;;;;;;;40.72;12.83;99094.16;4994259;28;20465;-75
2022/07/14 04:46:09;;;;;;;10.90;1.55;;;;;;;41.10;12.09;99093.84;4976598;28;20049;-75
2022/07/14 04:52:01;;;;;;;5.43;1.30;;;;;;;41.58;11.71;99094.00;4992788;28;20039;-76
2022/07/14 04:54:04;;;;;;;10.45;1.40;;;;;;;42.77;10.90;99099.69;4991908;28;20041;-83
2022/07/14 04:56:30;;;;;;;8.40;1.67;;;;;;;43.05;11.20;99101.31;4994012;28;20026;-78
2022/07/14 04:58:55;;;;;;;8.50;1.50;;;;;;;43.32;11.51;99098.22;4994147;28;20500;-77
2022/07/14 05:01:21;;;;;;;11.60;1.60;;;;;;;43.67;10.61;99108.34;4989819;28;20027;-78
2022/07/14 05:03:47;;;;;;;5.53;1.07;;;;;;;44.05;10.21;99110.28;4960630;28;20041;-79
2022/07/14 05:06:12;;;;;;;3.90;1.13;;;;;;;44.41;9.97;99111.72;4976483;28;20022;-75
2022/07/14 05:08:37;;;;;;;6.57;1.10;;;;;;;44.78;9.50;99114.69;4993681;28;20031;-77
2022/07/14 05:11:04;;;;;;;7.20;1.30;;;;;;;45.18;9.27;99105.94;4975854;28;20109;-76
2022/07/14 05:13:29;;;;;;;14.40;1.60;;;;;;;45.37;10.12;99110.13;4976039;28;20033;-78
2022/07/14 05:15:55;;;;;;;10.23;1.30;;;;;;;45.72;9.62;99116.06;4992429;28;20109;-76
2022/07/14 05:18:21;;;;;;;21.03;1.70;;;;;;;46.09;9.76;99107.03;4992386;28;20556;-77
2022/07/14 05:20:46;;;;;;;16.50;1.60;;;;;;;46.46;9.22;99112.50;4993362;28;20085;-75
2022/07/14 05:23:11;;;;;;;12.87;1.33;;;;;;;46.84;9.06;99111.25;4975784;28;20031;-77
2022/07/14 05:25:39;;;;;;;13.40;1.40;;;;;;;47.23;8.70;99114.34;4993450;28;20022;-79
2022/07/14 05:28:04;;;;;;;7.80;0.90;;;;;;;47.60;8.55;99122.41;4991830;28;20522;-77
2022/07/14 05:30:30;;;;;;;7.47;0.90;;;;;;;47.95;8.09;99114.22;4993981;28;20109;-82
2022/07/14 05:32:57;;;;;;;6.77;0.77;;;;;;;48.22;7.95;99117.25;4991760;28;21177;-73
2022/07/14 05:35:22;;;;;;;5.97;1.05;;;;;;;48.54;7.63;99117.16;4973342;28;20410;-72
2022/07/14 05:37:48;;;;;;;4.90;1.10;;;;;;;48.60;8.13;99118.50;4993416;28;20028;-69
2022/07/14 05:40:13;;;;;;;4.73;0.97;;;;;;;48.86;7.53;99126.16;4992163;28;20688;-72
2022/07/14 05:42:39;;;;;;;6.77;0.90;;;;;;;49.07;7.57;99128.56;4960290;28;20039;-71
2022/07/14 05:45:05;;;;;;;5.20;0.73;;;;;;;49.34;7.23;99128.66;4993836;28;20034;-71
2022/07/14 05:47:30;;;;;;;8.63;0.80;;;;;;;49.55;6.88;99121.91;4977228;28;20038;-73
2022/07/14 05:49:56;;;;;;;7.43;0.97;;;;;;;49.72;6.56;99126.94;4977564;28;20402;-74
2022/07/14 05:52:22;;;;;;;9.80;1.40;;;;;;;49.65;7.81;99126.84;4978102;28;20030;-73
2022/07/14 05:54:47;;;;;;;8.52;1.05;;;;;;;49.55;7.77;99130.22;4993927;28;20497;-77
